Messwerte Iranshahr

Temperatur

Temperatur
°C
1615195800 13.00 13.00 31
1615199400 14.00 14.00 31
1615203000 15.00 15.00 32
1615206600 16.00 16.00 32
1615210200 17.00 17.00 32
1615213800 18.00 18.00 30
1615217400 19.00 19.00 29
1615221000 20.00 20.00 26
1615224600 21.00 21.00 24
1615228200 22.00 22.00 22
1615231800 23.00 23.00 21
1615235400 0.00 0.00 20
1615239000 1.00 1.00 19
1615242600 2.00 2.00
1615246200 3.00 3.00
1615249800 4.00 4.00 17
1615253400 5.00 5.00
1615257000 6.00 6.00 15
1615260600 7.00 7.00 14
1615264200 8.00 8.00 17
1615267800 9.00 9.00 20
1615271400 10.00 10.00 23
1615275000 11.00 11.00 25
1615278600 12.00 12.00 27

Aktuellste Messwerte

Wettercharakter
Wetter: recht sonnig
Temperatur
28 °C
Feuchtigkeit
25 %
Wind
20 km/hWindrichtung: Südwest
Luftdruck
1014 hPa
Messzeit: 9. März 2021, 12.30Datenquelle: METAR

Weitere Messstationen in der Nähe

Messstation Temperatur Entfernung
Chahbahar 28 °C 213 km
Zahedan 27 °C 253 km
Jask 28 °C 340 km
Bandar Abbas 26 °C 428 km
Zabol 29 °C 434 km
Maskat 28 °C 470 km
Fujairah 27 °C 494 km

Wind

Windrichtung Böen Mittelwind
° km/h km/h
1615195800 13.00 12.00 - 13.00 0
1615199400 14.00 13.00 - 14.00 90° 5
1615203000 15.00 14.00 - 15.00 240° 10
1615206600 16.00 15.00 - 16.00 270° 20
1615210200 17.00 16.00 - 17.00 270° 20
1615213800 18.00 17.00 - 18.00 280° 10
1615217400 19.00 18.00 - 19.00 280° 10
1615221000 20.00 19.00 - 20.00 30° 5
1615224600 21.00 20.00 - 21.00 150° 5
1615228200 22.00 21.00 - 22.00 0
1615231800 23.00 22.00 - 23.00 0
1615235400 0.00 23.00 - 0.00 360° 10
1615239000 1.00 0.00 - 1.00 360° 15
1615242600 2.00 1.00 - 2.00
1615246200 3.00 2.00 - 3.00
1615249800 4.00 3.00 - 4.00 360° 5
1615253400 5.00 4.00 - 5.00
1615257000 6.00 5.00 - 6.00 40° 5
1615260600 7.00 6.00 - 7.00 0
1615264200 8.00 7.00 - 8.00 300° 5
1615267800 9.00 8.00 - 9.00 0
1615271400 10.00 9.00 - 10.00 0
1615275000 11.00 10.00 - 11.00 0
1615278600 12.00 11.00 - 12.00 280° 10

Ihre Wetterstation

Fehlt Ihre Wetterstation auf unserem Portal?

Schreiben Sie an network@meteonews.ch

Klima

Wann ist es am wärmsten? Wann regnet es am wenigsten? Unsere Klimadaten geben Auskunft.